KILE/ILE METAR and TAF weather

Enter ICAO airport designator
Station Type Date Time Source
KILE METAR 2022/07/03 14:56 UTC NOAA

KILE 031456Z AUTO 18010KT 10SM CLR 31/21 A3004 RMK AO2 SLP157 T03110211 51008


Station Type Date Time Source
KILE Decoded METAR 2022/07/03 14:56 UTC NOAA

Killeen, Skylark Field Airport, TX, United States (KILE) 31-05N 097-41W
Jul 03, 2022 - 10:56 AM EDT / 2022.07.03 1456 UTC
Wind: from the S (180 degrees) at 12 MPH (10 KT):0
Visibility: 10 mile(s):0
Sky conditions: clear
Temperature: 88.0 F (31.1 C)
Dew Point: 70.0 F (21.1 C)
Relative Humidity: 55%
Pressure (altimeter): 30.04 in. Hg (1017 hPa)
Pressure tendency: 0.02 inches (0.8 hPa) higher than three hours ago
ob: KILE 031456Z AUTO 18010KT 10SM CLR 31/21 A3004 RMK AO2 SLP157 T03110211 51008
cycle: 15

Station Type Date Time Source
KILE TAF UTC NOAA

Error!

Example: see airport list